createdAt,value
2017-09-26T00:01:27.739Z,73.70
2017-09-26T00:03:54.914Z,73.80
2017-09-26T00:06:23.731Z,73.70
2017-09-26T00:08:50.925Z,73.70
2017-09-26T00:11:19.742Z,73.70
2017-09-26T00:13:47.995Z,73.80
2017-09-26T00:16:15.187Z,73.80
2017-09-26T00:18:43.103Z,73.80
2017-09-26T00:21:10.250Z,73.60
2017-09-26T00:23:37.439Z,73.50
2017-09-26T00:26:06.139Z,73.60
2017-09-26T00:28:34.060Z,72.90
2017-09-26T00:31:01.288Z,72.90
2017-09-26T00:33:28.441Z,72.90
2017-09-26T00:35:56.959Z,72.90
2017-09-26T00:38:24.143Z,72.90
2017-09-26T00:40:52.135Z,73.10
2017-09-26T00:43:19.282Z,73.10
2017-09-26T00:45:46.431Z,73.00
2017-09-26T00:48:13.620Z,73.00
2017-09-26T00:50:41.658Z,73.00
2017-09-26T00:53:08.846Z,73.00
2017-09-26T00:55:36.904Z,73.00
2017-09-26T00:58:04.939Z,73.00
2017-09-26T01:00:41.780Z,73.40
2017-09-26T01:03:09.708Z,73.30
2017-09-26T01:05:43.474Z,73.20
2017-09-26T01:08:11.402Z,73.30
2017-09-26T01:10:39.358Z,73.30
2017-09-26T01:13:06.507Z,73.20
2017-09-26T01:15:33.691Z,73.20
2017-09-26T01:18:01.758Z,73.20
2017-09-26T01:20:28.951Z,73.40
2017-09-26T01:22:57.770Z,73.40
2017-09-26T01:25:25.715Z,73.40
2017-09-26T01:27:54.811Z,73.20
2017-09-26T01:30:22.727Z,73.20
2017-09-26T01:32:49.878Z,73.20
2017-09-26T01:35:18.011Z,73.20
2017-09-26T01:37:45.923Z,73.30
2017-09-26T01:40:13.863Z,73.30
2017-09-26T01:42:41.808Z,73.30
2017-09-26T01:45:09.725Z,73.30
2017-09-26T01:47:36.915Z,73.30
2017-09-26T01:50:04.063Z,73.20
2017-09-26T01:52:31.979Z,73.20
2017-09-26T01:54:59.941Z,73.20
2017-09-26T01:57:27.141Z,73.30
2017-09-26T01:59:54.806Z,74.00
2017-09-26T02:02:21.955Z,73.20
2017-09-26T02:04:50.058Z,73.30
2017-09-26T02:07:18.879Z,73.20
2017-09-26T02:09:47.018Z,73.20
2017-09-26T02:12:15.838Z,73.40
2017-09-26T02:14:43.786Z,73.30
2017-09-26T02:17:12.646Z,73.30
2017-09-26T02:19:39.800Z,73.30
2017-09-26T02:22:07.747Z,73.20
2017-09-26T02:24:34.925Z,73.30
2017-09-26T02:27:02.989Z,73.20
2017-09-26T02:29:30.942Z,73.30
2017-09-26T02:31:58.092Z,73.30
2017-09-26T02:34:25.311Z,73.30
2017-09-26T02:36:53.241Z,73.10
2017-09-26T02:39:20.396Z,73.00
2017-09-26T02:41:48.489Z,72.80
2017-09-26T02:44:16.400Z,72.70
2017-09-26T02:46:44.363Z,72.70
2017-09-26T02:49:11.510Z,72.90
2017-09-26T02:51:39.592Z,72.80
2017-09-26T02:54:06.735Z,72.90
2017-09-26T02:56:34.724Z,72.80
2017-09-26T02:59:01.915Z,72.80
2017-09-26T03:01:29.839Z,72.90
2017-09-26T03:03:57.035Z,72.80
2017-09-26T03:06:24.191Z,72.90
2017-09-26T03:08:52.107Z,73.10
2017-09-26T03:11:19.287Z,73.10
2017-09-26T03:13:47.944Z,73.80
2017-09-26T03:16:15.139Z,73.10
2017-09-26T03:18:42.286Z,73.00
2017-09-26T03:21:09.431Z,72.90
2017-09-26T03:23:37.399Z,73.10
2017-09-26T03:26:05.337Z,73.00
2017-09-26T03:28:32.509Z,73.00
2017-09-26T03:30:59.659Z,73.10
2017-09-26T03:33:27.628Z,73.20
2017-09-26T03:35:55.567Z,73.10
2017-09-26T03:38:22.764Z,73.10
2017-09-26T03:40:49.914Z,73.10
2017-09-26T03:43:17.971Z,73.10
2017-09-26T03:45:45.162Z,73.10
2017-09-26T03:48:13.911Z,73.30
2017-09-26T03:50:41.067Z,73.30
2017-09-26T03:53:08.253Z,73.30
2017-09-26T03:55:36.947Z,73.20
2017-09-26T03:58:04.907Z,73.30
2017-09-26T04:00:32.824Z,73.20
2017-09-26T04:02:59.980Z,73.20
2017-09-26T04:05:27.166Z,73.20
2017-09-26T04:07:54.758Z,73.10
2017-09-26T04:10:22.672Z,72.80
2017-09-26T04:12:50.621Z,72.60
2017-09-26T04:15:17.773Z,72.60
2017-09-26T04:17:45.752Z,72.50
2017-09-26T04:20:13.801Z,73.30
2017-09-26T04:22:41.863Z,72.80
2017-09-26T04:25:10.732Z,72.60
2017-09-26T04:27:38.659Z,72.60
2017-09-26T04:30:05.855Z,72.60
2017-09-26T04:32:33.003Z,72.60
2017-09-26T04:35:00.147Z,72.70
2017-09-26T04:37:27.759Z,72.80
2017-09-26T04:39:54.939Z,72.70
2017-09-26T04:42:22.127Z,72.90
2017-09-26T04:44:50.047Z,72.90
2017-09-26T04:47:18.090Z,72.90
2017-09-26T04:49:45.279Z,72.90
2017-09-26T04:52:13.199Z,72.90
2017-09-26T04:54:41.115Z,72.80
2017-09-26T04:57:09.099Z,72.80
2017-09-26T04:59:36.290Z,72.80
2017-09-26T05:02:04.204Z,73.00
2017-09-26T05:04:31.355Z,73.00
2017-09-26T05:06:58.543Z,73.70
2017-09-26T05:09:25.698Z,72.90
2017-09-26T05:11:53.622Z,72.90
2017-09-26T05:14:20.808Z,72.90
2017-09-26T05:16:48.871Z,73.10
2017-09-26T05:19:16.057Z,73.00
2017-09-26T05:21:43.967Z,73.90
2017-09-26T05:24:12.090Z,73.90
2017-09-26T05:26:40.954Z,73.90
2017-09-26T05:29:08.103Z,73.90
2017-09-26T05:31:35.252Z,73.30
2017-09-26T05:34:03.451Z,73.70
2017-09-26T05:36:30.606Z,73.60
2017-09-26T05:38:57.803Z,73.50
2017-09-26T05:41:24.951Z,73.70
2017-09-26T05:43:52.104Z,73.00
2017-09-26T05:46:19.288Z,72.80
2017-09-26T05:48:46.439Z,72.80
2017-09-26T05:51:13.623Z,72.80
2017-09-26T05:53:41.592Z,72.50
2017-09-26T05:56:10.279Z,72.60
2017-09-26T05:58:39.117Z,72.60
2017-09-26T06:01:06.295Z,72.70
2017-09-26T06:03:34.235Z,72.60
2017-09-26T06:06:01.414Z,72.70
2017-09-26T06:08:28.564Z,72.80
2017-09-26T06:10:56.556Z,73.30
2017-09-26T06:13:23.742Z,72.70
2017-09-26T06:15:50.927Z,72.70
2017-09-26T06:18:18.891Z,72.70
2017-09-26T06:20:47.618Z,72.90
2017-09-26T06:23:14.799Z,72.80
2017-09-26T06:25:41.948Z,72.80
2017-09-26T06:28:09.949Z,72.80
2017-09-26T06:30:37.131Z,72.80
2017-09-26T06:33:04.316Z,73.60
2017-09-26T06:35:33.147Z,73.00
2017-09-26T06:38:00.294Z,73.00
2017-09-26T06:40:27.486Z,73.00
2017-09-26T06:42:54.631Z,73.30
2017-09-26T06:45:21.775Z,73.10
2017-09-26T06:47:49.744Z,72.90
2017-09-26T06:50:16.887Z,72.90
2017-09-26T06:52:44.075Z,73.10
2017-09-26T06:55:12.770Z,73.00
2017-09-26T06:57:40.719Z,73.10
2017-09-26T07:00:08.637Z,73.20
2017-09-26T07:02:36.602Z,73.10
2017-09-26T07:05:03.752Z,73.10
2017-09-26T07:07:31.679Z,73.10
2017-09-26T07:09:59.632Z,72.90
2017-09-26T07:12:26.779Z,72.80
2017-09-26T07:14:54.003Z,73.40
2017-09-26T07:17:21.148Z,72.70
2017-09-26T07:19:48.296Z,72.80
2017-09-26T07:22:15.488Z,72.80
2017-09-26T07:24:43.543Z,72.80
2017-09-26T07:27:11.455Z,72.80
2017-09-26T07:29:39.401Z,72.80
2017-09-26T07:32:06.594Z,72.80
2017-09-26T07:34:34.539Z,72.90
2017-09-26T07:37:03.364Z,73.10
2017-09-26T07:39:30.539Z,73.00
2017-09-26T07:41:58.475Z,73.00
2017-09-26T07:44:25.674Z,72.40
2017-09-26T07:46:53.615Z,73.00
2017-09-26T07:49:20.759Z,72.90
2017-09-26T07:51:48.751Z,72.90
2017-09-26T07:54:16.679Z,73.00
2017-09-26T07:56:46.479Z,73.10
2017-09-26T07:59:15.199Z,73.10
2017-09-26T08:01:43.135Z,73.00
2017-09-26T08:04:11.206Z,73.20
2017-09-26T08:06:40.115Z,73.90
2017-09-26T08:09:08.141Z,73.20
2017-09-26T08:11:36.222Z,73.20
2017-09-26T08:14:04.291Z,73.10
2017-09-26T08:16:31.470Z,72.70
2017-09-26T08:19:00.167Z,72.60
2017-09-26T08:21:29.063Z,72.70
2017-09-26T08:23:56.985Z,72.70
2017-09-26T08:26:24.131Z,72.70
2017-09-26T08:28:52.223Z,72.70
2017-09-26T08:31:20.275Z,72.70
2017-09-26T08:33:47.656Z,72.70
2017-09-26T08:36:14.851Z,72.70
2017-09-26T08:38:41.999Z,72.80
2017-09-26T08:41:10.055Z,73.00
2017-09-26T08:43:38.936Z,73.10
2017-09-26T08:46:06.887Z,73.00
2017-09-26T08:48:34.875Z,73.00
2017-09-26T08:51:02.783Z,73.00
2017-09-26T08:53:30.770Z,73.00
2017-09-26T08:55:57.924Z,73.10
2017-09-26T08:58:25.840Z,73.70
2017-09-26T09:00:53.799Z,73.10
2017-09-26T09:03:21.859Z,73.10
2017-09-26T09:05:49.004Z,73.10
2017-09-26T09:08:16.183Z,73.10
2017-09-26T09:10:44.097Z,73.00
2017-09-26T09:13:12.056Z,73.00
2017-09-26T09:15:39.206Z,73.10
2017-09-26T09:18:07.150Z,73.20
2017-09-26T09:20:36.028Z,73.20
2017-09-26T09:23:04.115Z,73.90
2017-09-26T09:25:32.067Z,73.20
2017-09-26T09:28:00.776Z,73.10
2017-09-26T09:30:28.691Z,73.40
2017-09-26T09:32:56.651Z,73.40
2017-09-26T09:35:24.595Z,73.30
2017-09-26T09:37:52.716Z,73.00
2017-09-26T09:40:20.623Z,73.30
2017-09-26T09:42:49.449Z,73.20
2017-09-26T09:45:17.420Z,73.20
2017-09-26T09:47:45.459Z,73.30
2017-09-26T09:50:13.376Z,73.40
2017-09-26T09:52:40.563Z,73.40
2017-09-26T09:55:09.376Z,73.90
2017-09-26T09:57:37.458Z,73.30
2017-09-26T10:00:04.603Z,73.40
2017-09-26T10:02:32.559Z,74.10
2017-09-26T10:05:00.514Z,73.40
2017-09-26T10:07:28.632Z,73.30
2017-09-26T10:09:56.691Z,73.10
2017-09-26T10:12:24.703Z,73.10
2017-09-26T10:14:52.632Z,73.00
2017-09-26T10:17:20.679Z,73.80
2017-09-26T10:19:48.623Z,73.10
2017-09-26T10:22:15.798Z,73.10
2017-09-26T10:24:44.534Z,73.20
2017-09-26T10:27:12.582Z,73.10
2017-09-26T10:29:39.732Z,73.10
2017-09-26T10:32:07.804Z,73.10
2017-09-26T10:34:35.887Z,73.20
2017-09-26T10:37:03.039Z,73.20
2017-09-26T10:39:31.113Z,73.20
2017-09-26T10:41:58.331Z,73.20
2017-09-26T10:44:27.172Z,73.00
2017-09-26T10:46:54.323Z,73.00
2017-09-26T10:49:22.455Z,73.10
2017-09-26T10:51:50.375Z,73.20
2017-09-26T10:54:18.294Z,73.10
2017-09-26T10:56:46.247Z,73.20
2017-09-26T10:59:14.162Z,73.20
2017-09-26T11:01:41.363Z,73.10
2017-09-26T11:04:09.402Z,73.00
2017-09-26T11:06:37.321Z,73.10
2017-09-26T11:09:06.179Z,73.10
2017-09-26T11:11:33.331Z,73.10
2017-09-26T11:14:00.515Z,73.30
2017-09-26T11:16:28.429Z,73.20
2017-09-26T11:18:56.383Z,73.20
2017-09-26T11:21:23.565Z,72.80
2017-09-26T11:23:51.617Z,73.20
2017-09-26T11:26:19.704Z,73.20
2017-09-26T11:28:47.755Z,73.40
2017-09-26T11:31:15.683Z,73.40
2017-09-26T11:33:42.859Z,73.30
2017-09-26T11:36:10.915Z,73.20
2017-09-26T11:38:38.858Z,73.20
2017-09-26T11:41:06.779Z,73.20
2017-09-26T11:43:34.880Z,73.20
2017-09-26T11:46:02.971Z,73.20
2017-09-26T11:48:31.084Z,73.30
2017-09-26T11:50:59.295Z,73.10
2017-09-26T11:53:27.355Z,73.10
2017-09-26T11:55:55.340Z,73.20
2017-09-26T11:58:23.399Z,73.20
2017-09-26T12:00:50.542Z,73.60
2017-09-26T12:03:18.653Z,73.30
2017-09-26T12:05:45.809Z,73.40
2017-09-26T12:08:12.959Z,73.30
2017-09-26T12:10:41.799Z,73.00
2017-09-26T12:13:14.766Z,73.00
2017-09-26T12:15:43.505Z,73.10
2017-09-26T12:18:11.575Z,73.10
2017-09-26T12:20:39.496Z,72.90
2017-09-26T12:23:08.368Z,73.10
2017-09-26T12:25:35.510Z,73.00
2017-09-26T12:28:03.452Z,73.00
2017-09-26T12:30:30.639Z,73.10
2017-09-26T12:32:58.568Z,73.10
2017-09-26T12:35:26.055Z,73.00
2017-09-26T12:37:53.246Z,73.00
2017-09-26T12:40:21.931Z,73.00
2017-09-26T12:42:49.847Z,73.00
2017-09-26T12:45:17.814Z,73.00
2017-09-26T12:47:44.967Z,73.10
2017-09-26T12:50:13.047Z,73.00
2017-09-26T12:52:40.234Z,73.10
2017-09-26T12:55:08.268Z,73.10
2017-09-26T12:57:35.447Z,73.10
2017-09-26T13:00:03.516Z,73.10
2017-09-26T13:02:30.715Z,73.10
2017-09-26T13:04:58.775Z,73.10
2017-09-26T13:07:27.498Z,73.10
2017-09-26T13:09:55.463Z,73.10
2017-09-26T13:12:22.656Z,73.00
2017-09-26T13:14:49.802Z,73.00
2017-09-26T13:17:17.855Z,73.00
2017-09-26T13:19:45.808Z,73.10
2017-09-26T13:22:12.951Z,73.10
2017-09-26T13:24:41.064Z,73.10
2017-09-26T13:27:08.211Z,73.10
2017-09-26T13:29:36.123Z,73.10
2017-09-26T13:32:04.222Z,73.20
2017-09-26T13:34:32.142Z,73.20
2017-09-26T13:37:00.227Z,73.20
2017-09-26T13:39:28.323Z,73.20
2017-09-26T13:41:56.312Z,73.20
2017-09-26T13:44:24.287Z,73.20
2017-09-26T13:46:52.335Z,73.10
2017-09-26T13:49:19.519Z,73.10
2017-09-26T13:51:46.711Z,73.10
2017-09-26T13:54:14.627Z,73.10
2017-09-26T13:56:42.702Z,73.10
2017-09-26T13:59:10.811Z,73.10
2017-09-26T14:01:38.855Z,73.10
2017-09-26T14:04:06.158Z,73.10
2017-09-26T14:06:35.024Z,73.10
2017-09-26T14:09:02.171Z,73.10
2017-09-26T14:11:30.245Z,73.10
2017-09-26T14:13:58.359Z,73.10
2017-09-26T14:16:25.511Z,73.10
2017-09-26T14:18:53.605Z,73.10
2017-09-26T14:21:21.729Z,72.90
2017-09-26T14:23:49.795Z,72.90
2017-09-26T14:26:16.991Z,73.00
2017-09-26T14:28:45.032Z,72.90
2017-09-26T14:31:13.848Z,72.90
2017-09-26T14:33:41.810Z,72.80
2017-09-26T14:36:10.076Z,72.80
2017-09-26T14:38:38.824Z,72.90
2017-09-26T14:41:06.939Z,72.80
2017-09-26T14:43:35.738Z,73.00
2017-09-26T14:46:04.461Z,72.90
2017-09-26T14:48:31.621Z,72.80
2017-09-26T14:51:00.426Z,73.40
2017-09-26T14:53:27.631Z,72.90
2017-09-26T14:55:55.557Z,72.80
2017-09-26T14:58:22.703Z,72.90
2017-09-26T15:00:50.680Z,72.90
2017-09-26T15:03:17.831Z,72.90
2017-09-26T15:05:45.751Z,73.00
2017-09-26T15:08:12.938Z,73.00
2017-09-26T15:10:41.029Z,72.90
2017-09-26T15:13:08.224Z,72.80
2017-09-26T15:15:35.371Z,72.80
2017-09-26T15:18:02.521Z,72.90
2017-09-26T15:20:30.606Z,72.90
2017-09-26T15:22:57.759Z,72.90
2017-09-26T15:25:25.718Z,72.90
2017-09-26T15:27:52.871Z,72.90
2017-09-26T15:30:20.962Z,72.80
2017-09-26T15:32:49.052Z,73.00
2017-09-26T15:35:16.249Z,72.90
2017-09-26T15:37:45.069Z,73.10
2017-09-26T15:40:12.868Z,73.10
2017-09-26T15:42:40.863Z,72.90
2017-09-26T15:45:08.791Z,72.50
2017-09-26T15:47:36.876Z,72.50
2017-09-26T15:50:04.936Z,72.50
2017-09-26T15:52:32.128Z,72.50
2017-09-26T15:55:00.952Z,72.60
2017-09-26T15:57:29.023Z,72.60
2017-09-26T15:59:56.984Z,72.50
2017-09-26T16:02:25.060Z,72.50
2017-09-26T16:04:53.112Z,72.50
2017-09-26T16:07:22.008Z,72.50
2017-09-26T16:09:49.931Z,72.60
2017-09-26T16:12:17.915Z,72.50
2017-09-26T16:14:45.067Z,72.70
2017-09-26T16:17:13.006Z,72.70
2017-09-26T16:19:40.982Z,72.60
2017-09-26T16:22:08.940Z,72.70
2017-09-26T16:24:37.043Z,72.70
2017-09-26T16:27:05.112Z,72.70
2017-09-26T16:29:33.157Z,72.70
2017-09-26T16:32:01.262Z,72.70
2017-09-26T16:34:28.415Z,72.70
2017-09-26T16:36:55.565Z,72.70
2017-09-26T16:39:23.395Z,72.70
2017-09-26T16:41:50.538Z,72.70
2017-09-26T16:44:18.623Z,72.50
2017-09-26T16:46:46.574Z,72.50
2017-09-26T16:49:13.731Z,72.60
2017-09-26T16:51:41.855Z,72.80
2017-09-26T16:54:09.936Z,72.80
2017-09-26T16:56:38.004Z,72.70
2017-09-26T16:59:05.187Z,72.80
2017-09-26T17:01:33.111Z,72.60
2017-09-26T17:04:01.208Z,72.60
2017-09-26T17:06:28.356Z,72.70
2017-09-26T17:08:55.508Z,72.70
2017-09-26T17:11:22.695Z,72.70
2017-09-26T17:13:49.844Z,72.70
2017-09-26T17:16:17.025Z,72.70
2017-09-26T17:18:45.120Z,72.70
2017-09-26T17:21:12.275Z,72.50
2017-09-26T17:23:39.427Z,72.30
2017-09-26T17:26:06.615Z,72.10
2017-09-26T17:28:35.343Z,72.20
2017-09-26T17:31:02.489Z,72.20
2017-09-26T17:33:29.641Z,72.30
2017-09-26T17:35:57.747Z,72.20
2017-09-26T17:38:24.894Z,72.10
2017-09-26T17:40:52.619Z,72.10
2017-09-26T17:43:20.647Z,72.30
2017-09-26T17:45:47.832Z,72.30
2017-09-26T17:48:15.016Z,72.50
2017-09-26T17:50:42.171Z,72.40
2017-09-26T17:53:09.379Z,72.40
2017-09-26T17:55:36.571Z,72.40
2017-09-26T17:58:04.619Z,72.30
2017-09-26T18:00:31.811Z,72.40
2017-09-26T18:02:58.960Z,72.50
2017-09-26T18:05:26.112Z,72.50
2017-09-26T18:07:54.224Z,72.50
2017-09-26T18:10:23.046Z,72.30
2017-09-26T18:12:50.236Z,72.40
2017-09-26T18:15:17.388Z,72.50
2017-09-26T18:17:45.402Z,72.30
2017-09-26T18:20:12.548Z,72.30
2017-09-26T18:22:39.699Z,72.10
2017-09-26T18:25:06.888Z,71.90
2017-09-26T18:27:34.036Z,71.70
2017-09-26T18:30:01.999Z,71.50
2017-09-26T18:32:29.979Z,71.50
2017-09-26T18:34:57.970Z,71.50
2017-09-26T18:37:25.783Z,71.90
2017-09-26T18:39:52.939Z,71.70
2017-09-26T18:42:20.192Z,71.70
2017-09-26T18:44:48.247Z,71.80
2017-09-26T18:47:16.165Z,71.90
2017-09-26T18:49:44.283Z,71.80
2017-09-26T18:52:12.202Z,71.90
2017-09-26T18:54:40.149Z,71.90
2017-09-26T18:57:07.344Z,71.80
2017-09-26T18:59:34.490Z,71.80
2017-09-26T19:02:01.673Z,71.90
2017-09-26T19:04:29.589Z,72.10
2017-09-26T19:06:56.771Z,72.10
2017-09-26T19:09:23.977Z,72.10
2017-09-26T19:11:52.019Z,72.10
2017-09-26T19:14:20.835Z,72.20
2017-09-26T19:16:48.910Z,72.20
2017-09-26T19:19:17.849Z,72.10
2017-09-26T19:21:45.035Z,72.10
2017-09-26T19:24:12.233Z,72.20
2017-09-26T19:26:40.291Z,72.30
2017-09-26T19:29:08.388Z,72.20
2017-09-26T19:31:36.495Z,72.20
2017-09-26T19:34:05.456Z,72.10
2017-09-26T19:36:32.608Z,72.00
2017-09-26T19:39:00.603Z,71.90
2017-09-26T19:41:28.549Z,71.50
2017-09-26T19:43:55.743Z,71.50
2017-09-26T19:46:23.660Z,71.50
2017-09-26T19:48:50.868Z,71.50
2017-09-26T19:51:18.072Z,71.70
2017-09-26T19:53:45.219Z,71.60
2017-09-26T19:56:12.382Z,71.60
2017-09-26T19:58:40.474Z,71.60
2017-09-26T20:01:09.299Z,71.80
2017-09-26T20:03:36.492Z,71.80
2017-09-26T20:06:04.439Z,71.70
2017-09-26T20:08:31.596Z,71.80
2017-09-26T20:10:58.783Z,71.90
2017-09-26T20:13:26.720Z,72.00
2017-09-26T20:15:53.919Z,72.00
2017-09-26T20:18:21.357Z,72.00
2017-09-26T20:20:48.997Z,72.00
2017-09-26T20:23:28.795Z,71.90
2017-09-26T20:25:57.793Z,71.90
2017-09-26T20:28:25.280Z,72.00
2017-09-26T20:30:55.347Z,72.30
2017-09-26T20:33:23.383Z,72.10
2017-09-26T20:35:51.302Z,72.10
2017-09-26T20:38:18.487Z,72.10
2017-09-26T20:40:46.413Z,72.70
2017-09-26T20:43:13.611Z,72.10
2017-09-26T20:45:41.532Z,72.10
2017-09-26T20:48:10.167Z,72.10
2017-09-26T20:50:37.400Z,72.10
2017-09-26T20:53:04.551Z,72.10
2017-09-26T20:55:32.827Z,72.10
2017-09-26T20:58:00.023Z,72.10
2017-09-26T21:00:27.172Z,72.20
2017-09-26T21:02:54.327Z,72.20
2017-09-26T21:05:21.512Z,72.10
2017-09-26T21:07:49.559Z,71.90
2017-09-26T21:10:16.740Z,71.80
2017-09-26T21:12:44.650Z,71.50
2017-09-26T21:15:12.615Z,71.60
2017-09-26T21:17:40.533Z,71.70
2017-09-26T21:20:08.599Z,71.70
2017-09-26T21:22:36.756Z,71.80
2017-09-26T21:25:03.911Z,71.80
2017-09-26T21:27:31.963Z,71.80
2017-09-26T21:30:00.811Z,71.80
2017-09-26T21:32:28.875Z,71.80
2017-09-26T21:34:56.103Z,71.90
2017-09-26T21:37:23.283Z,71.90
2017-09-26T21:39:50.439Z,71.80
2017-09-26T21:42:17.720Z,71.90
2017-09-26T21:44:44.871Z,72.00
2017-09-26T21:47:12.495Z,72.10
2017-09-26T21:49:39.647Z,72.10
2017-09-26T21:52:06.812Z,72.10
2017-09-26T21:54:33.999Z,72.10
2017-09-26T21:57:01.934Z,72.10
2017-09-26T21:59:29.083Z,72.80
2017-09-26T22:01:56.283Z,72.10
2017-09-26T22:04:24.201Z,72.20
2017-09-26T22:06:51.353Z,72.20
2017-09-26T22:09:18.542Z,72.10
2017-09-26T22:11:46.468Z,72.10
2017-09-26T22:14:14.378Z,72.10
2017-09-26T22:16:42.343Z,72.10
2017-09-26T22:19:10.282Z,72.10
2017-09-26T22:21:38.198Z,72.80
2017-09-26T22:24:06.143Z,72.20
2017-09-26T22:26:33.299Z,72.30
2017-09-26T22:29:00.492Z,72.30
2017-09-26T22:31:27.648Z,72.90
2017-09-26T22:33:54.800Z,72.20
2017-09-26T22:36:22.407Z,72.20
2017-09-26T22:38:50.494Z,72.20
2017-09-26T22:41:18.452Z,72.30
2017-09-26T22:43:45.603Z,72.30
2017-09-26T22:46:13.675Z,72.30
2017-09-26T22:48:40.856Z,72.30
2017-09-26T22:51:08.772Z,72.30
2017-09-26T22:53:35.971Z,72.30
2017-09-26T22:56:03.891Z,72.20
2017-09-26T22:58:31.993Z,72.20
2017-09-26T23:00:59.145Z,72.30
2017-09-26T23:03:26.310Z,72.30
2017-09-26T23:05:54.260Z,72.50
2017-09-26T23:08:21.443Z,72.50
2017-09-26T23:10:49.349Z,72.30
2017-09-26T23:13:16.542Z,72.40
2017-09-26T23:15:44.460Z,72.10
2017-09-26T23:18:12.403Z,72.00
2017-09-26T23:20:40.358Z,71.90
2017-09-26T23:23:08.276Z,71.90
2017-09-26T23:25:36.219Z,71.90
2017-09-26T23:28:03.399Z,71.90
2017-09-26T23:30:30.583Z,71.90
2017-09-26T23:32:58.691Z,71.90
2017-09-26T23:35:25.839Z,72.10
2017-09-26T23:37:53.751Z,72.20
2017-09-26T23:40:20.939Z,72.10
2017-09-26T23:42:48.119Z,72.10
2017-09-26T23:45:16.213Z,72.20
2017-09-26T23:47:43.366Z,72.10
2017-09-26T23:50:10.513Z,72.10
2017-09-26T23:52:38.505Z,72.10
2017-09-26T23:55:06.576Z,72.20
2017-09-26T23:57:34.520Z,72.20
